Time;durP1;ratioP1;P1;durP2;ratioP2;P2;SDS_P1;SDS_P2;PMS_P1;PMS_P2;Temp;Humidity;BMP_temperature;BMP_pressure;BME280_temperature;BME280_humidity;BME280_pressure;Samples;Min_cycle;Max_cycle;Signal;HPM_P1;HPM_P2
2021/10/30 00:01:34;;;;;;;9.70;6.15;;;12.10;99.90;;;;;;5026598;28;20478;-61
2021/10/30 00:04:00;;;;;;;7.82;5.95;;;12.10;99.90;;;;;;5030346;28;20048;-62
2021/10/30 00:06:25;;;;;;;6.63;5.93;;;12.10;99.90;;;;;;5029546;28;20036;-61
2021/10/30 00:08:51;;;;;;;7.53;6.40;;;12.10;99.90;;;;;;5029086;28;20032;-61
2021/10/30 00:11:17;;;;;;;6.57;5.97;;;12.10;99.90;;;;;;5027716;28;20413;-61
2021/10/30 00:13:43;;;;;;;7.65;5.90;;;12.10;99.90;;;;;;5027522;28;20066;-62
2021/10/30 00:16:09;;;;;;;8.02;6.20;;;12.10;99.90;;;;;;5025577;28;20052;-61
2021/10/30 00:18:34;;;;;;;7.53;6.13;;;12.10;99.90;;;;;;5028126;28;20463;-61
2021/10/30 00:21:00;;;;;;;9.02;6.35;;;12.10;99.90;;;;;;5035534;28;20033;-61
2021/10/30 00:23:26;;;;;;;8.90;6.18;;;12.10;99.90;;;;;;5030087;28;20120;-62
2021/10/30 00:25:51;;;;;;;9.18;6.88;;;12.00;99.90;;;;;;5027433;28;20121;-61
2021/10/30 00:28:17;;;;;;;9.55;6.63;;;12.00;99.90;;;;;;5024726;28;20547;-62
2021/10/30 00:30:43;;;;;;;8.90;6.95;;;12.00;99.90;;;;;;5024208;28;20112;-61
2021/10/30 00:33:08;;;;;;;9.32;6.43;;;12.00;99.90;;;;;;5026815;28;20053;-61
2021/10/30 00:35:34;;;;;;;8.15;6.65;;;12.00;99.90;;;;;;5008283;28;20053;-62
2021/10/30 00:38:00;;;;;;;8.15;6.60;;;12.00;99.90;;;;;;5026957;28;20018;-62
2021/10/30 00:40:26;;;;;;;9.20;6.22;;;12.00;99.90;;;;;;5029968;28;20042;-61
2021/10/30 00:42:51;;;;;;;9.82;7.45;;;12.00;99.90;;;;;;5026205;28;20036;-61
2021/10/30 00:45:17;;;;;;;8.75;6.82;;;12.10;99.90;;;;;;5025939;28;20035;-61
2021/10/30 00:47:43;;;;;;;11.43;6.72;;;12.00;99.90;;;;;;5024283;28;20037;-61
2021/10/30 00:50:09;;;;;;;9.68;6.45;;;12.00;99.90;;;;;;5026454;28;20096;-61
2021/10/30 00:52:37;;;;;;;8.18;6.68;;;12.00;99.90;;;;;;5026691;28;20083;-61
2021/10/30 00:55:03;;;;;;;8.15;6.60;;;12.00;99.90;;;;;;5025125;28;20018;-61
2021/10/30 00:57:28;;;;;;;7.22;6.43;;;12.00;99.90;;;;;;5025870;28;20045;-61
2021/10/30 00:59:55;;;;;;;10.25;7.28;;;12.00;99.90;;;;;;5030891;28;20025;-61
2021/10/30 01:02:22;;;;;;;7.97;6.88;;;12.00;99.90;;;;;;5012577;28;20048;-61
2021/10/30 01:04:48;;;;;;;8.00;6.63;;;12.00;99.90;;;;;;5024681;28;20692;-61
2021/10/30 01:07:14;;;;;;;8.70;7.10;;;12.00;99.90;;;;;;5029578;28;20072;-61
2021/10/30 01:09:39;;;;;;;8.98;7.20;;;12.00;99.90;;;;;;5025597;28;20034;-61
2021/10/30 01:12:06;;;;;;;10.35;6.93;;;12.00;99.90;;;;;;5027345;28;20083;-61
2021/10/30 01:14:33;;;;;;;10.07;7.43;;;12.00;99.90;;;;;;5010543;28;20112;-61
2021/10/30 01:17:02;;;;;;;9.35;7.47;;;12.00;99.90;;;;;;5009800;28;20021;-62
2021/10/30 01:19:30;;;;;;;8.13;6.80;;;12.00;99.90;;;;;;5022040;28;20039;-61
2021/10/30 01:21:56;;;;;;;7.97;6.90;;;11.90;99.90;;;;;;5027917;28;20120;-61
2021/10/30 01:24:22;;;;;;;10.32;7.18;;;11.90;99.90;;;;;;5028611;28;20041;-61
2021/10/30 01:26:48;;;;;;;9.73;7.30;;;11.90;99.90;;;;;;5028622;28;20026;-61
2021/10/30 01:29:13;;;;;;;7.72;6.32;;;11.90;99.90;;;;;;5026928;28;20036;-61
2021/10/30 01:31:39;;;;;;;10.35;7.47;;;11.90;99.90;;;;;;5024777;28;20045;-61
2021/10/30 01:34:06;;;;;;;8.82;7.55;;;11.90;99.90;;;;;;5024778;28;20112;-61
2021/10/30 01:36:35;;;;;;;11.15;7.65;;;11.90;99.90;;;;;;5034213;28;20437;-61
2021/10/30 01:39:03;;;;;;;9.52;7.90;;;11.90;99.90;;;;;;5022522;28;20076;-61
2021/10/30 01:41:29;;;;;;;8.75;7.50;;;11.90;99.90;;;;;;5030830;28;20473;-61
2021/10/30 01:43:55;;;;;;;8.20;7.00;;;11.90;99.90;;;;;;5032946;28;20038;-61
2021/10/30 01:46:23;;;;;;;9.73;7.13;;;11.90;99.90;;;;;;5029639;28;20018;-61
2021/10/30 01:48:49;;;;;;;8.75;7.63;;;11.90;99.90;;;;;;5025751;28;20045;-61
2021/10/30 01:51:15;;;;;;;8.10;7.30;;;11.90;99.90;;;;;;5030764;28;20421;-61
2021/10/30 01:53:41;;;;;;;8.35;7.03;;;11.90;99.90;;;;;;5028848;28;20520;-62
2021/10/30 01:56:08;;;;;;;10.05;6.97;;;11.90;99.90;;;;;;5030534;28;20366;-61
2021/10/30 01:58:33;;;;;;;8.68;7.20;;;11.90;99.90;;;;;;5025240;28;20456;-61
2021/10/30 02:01:01;;;;;;;8.30;7.50;;;11.90;99.90;;;;;;5027516;28;20076;-61
2021/10/30 02:03:29;;;;;;;10.27;7.15;;;11.90;99.90;;;;;;5027759;28;20037;-61
2021/10/30 02:05:55;;;;;;;7.10;5.95;;;11.80;99.90;;;;;;5029108;28;20033;-61
2021/10/30 02:08:21;;;;;;;8.15;6.75;;;11.80;99.90;;;;;;5026069;28;20105;-62
2021/10/30 02:10:47;;;;;;;8.63;7.00;;;11.80;99.90;;;;;;5027559;28;20472;-62
2021/10/30 02:13:14;;;;;;;7.45;6.38;;;11.80;99.90;;;;;;5029661;28;20072;-61
2021/10/30 02:15:39;;;;;;;9.00;7.35;;;11.80;99.90;;;;;;5025899;28;20026;-61
2021/10/30 02:18:05;;;;;;;8.95;7.55;;;11.80;99.90;;;;;;5029559;28;20033;-62
2021/10/30 02:20:31;;;;;;;7.57;6.88;;;11.80;99.90;;;;;;5027802;28;20065;-62
2021/10/30 02:22:57;;;;;;;9.25;7.57;;;11.80;99.90;;;;;;5027686;28;20440;-62
2021/10/30 02:25:23;;;;;;;8.73;7.78;;;11.70;99.90;;;;;;5029209;28;20018;-61
2021/10/30 02:27:49;;;;;;;8.30;7.50;;;11.70;99.90;;;;;;5028082;28;20405;-61
2021/10/30 02:30:15;;;;;;;9.40;8.40;;;11.70;99.90;;;;;;5027537;28;20686;-61
2021/10/30 02:32:41;;;;;;;11.10;8.68;;;11.70;99.90;;;;;;5028363;28;20033;-61
2021/10/30 02:35:08;;;;;;;10.43;7.72;;;11.70;99.90;;;;;;5027396;28;20021;-61
2021/10/30 02:37:33;;;;;;;8.18;7.28;;;11.70;99.90;;;;;;5027853;28;20030;-61
2021/10/30 02:39:59;;;;;;;8.27;7.10;;;11.70;99.90;;;;;;5026619;28;20524;-61
2021/10/30 02:42:24;;;;;;;9.43;7.10;;;11.70;99.90;;;;;;5010814;28;20428;-61
2021/10/30 02:44:50;;;;;;;10.48;8.77;;;11.70;99.90;;;;;;5026705;28;20025;-61
2021/10/30 02:47:15;;;;;;;10.10;8.18;;;11.80;99.90;;;;;;5026885;28;20436;-61
2021/10/30 02:49:41;;;;;;;9.68;7.70;;;11.80;99.90;;;;;;5006059;28;20030;-61
2021/10/30 02:52:07;;;;;;;9.20;7.43;;;11.80;99.90;;;;;;5005455;28;20469;-61
2021/10/30 02:54:32;;;;;;;9.40;8.05;;;11.80;99.90;;;;;;5025144;28;20020;-61
2021/10/30 02:56:58;;;;;;;10.02;8.95;;;11.90;99.90;;;;;;5026546;28;20079;-61
2021/10/30 02:59:23;;;;;;;10.75;8.32;;;11.90;99.90;;;;;;5026359;28;20036;-61
2021/10/30 03:01:49;;;;;;;12.70;9.23;;;11.90;99.90;;;;;;5027822;28;20038;-61
2021/10/30 03:04:15;;;;;;;9.50;8.43;;;11.90;99.90;;;;;;5009914;28;20079;-61
2021/10/30 03:06:40;;;;;;;10.05;7.90;;;11.90;99.90;;;;;;5025182;28;20038;-61
2021/10/30 03:09:06;;;;;;;9.40;8.32;;;11.80;99.90;;;;;;5027803;28;20112;-61
2021/10/30 03:11:31;;;;;;;10.00;8.45;;;11.80;99.90;;;;;;5028273;28;20038;-61
2021/10/30 03:13:57;;;;;;;9.85;8.82;;;11.80;99.90;;;;;;5028065;28;20026;-61
2021/10/30 03:16:23;;;;;;;10.85;9.02;;;11.90;99.90;;;;;;5027379;28;20025;-61
2021/10/30 03:18:48;;;;;;;10.45;8.80;;;11.90;99.90;;;;;;5001707;28;20032;-61
2021/10/30 03:21:15;;;;;;;8.93;7.65;;;11.90;99.90;;;;;;5028279;28;20033;-61
2021/10/30 03:23:41;;;;;;;11.60;8.98;;;11.90;99.90;;;;;;4995696;28;20029;-61
2021/10/30 03:26:06;;;;;;;9.20;8.20;;;11.90;99.90;;;;;;5028575;28;20041;-61
2021/10/30 03:28:32;;;;;;;10.38;8.52;;;12.00;99.90;;;;;;5014617;28;20030;-61
2021/10/30 03:30:58;;;;;;;9.38;7.68;;;12.00;99.90;;;;;;5031397;28;20029;-61
2021/10/30 03:33:23;;;;;;;9.25;8.27;;;12.00;99.90;;;;;;5013559;28;20026;-61
2021/10/30 03:35:49;;;;;;;10.75;8.65;;;12.00;99.90;;;;;;5027622;28;20055;-61
2021/10/30 03:38:15;;;;;;;10.23;8.80;;;12.10;99.90;;;;;;5031835;28;20506;-61
2021/10/30 03:40:41;;;;;;;10.05;8.35;;;12.00;99.90;;;;;;5030303;28;20155;-61
2021/10/30 03:43:06;;;;;;;10.05;8.60;;;12.10;99.90;;;;;;5029801;28;20116;-61
2021/10/30 03:45:32;;;;;;;12.07;9.32;;;12.10;99.90;;;;;;5031808;28;20022;-61
2021/10/30 03:48:01;;;;;;;9.55;8.27;;;12.10;99.90;;;;;;5032412;28;20032;-61
2021/10/30 03:50:27;;;;;;;9.40;8.27;;;12.10;99.90;;;;;;5027069;28;20033;-61
2021/10/30 03:52:53;;;;;;;11.80;8.40;;;12.10;99.90;;;;;;5030900;28;20022;-61
2021/10/30 03:55:18;;;;;;;10.45;7.93;;;12.10;99.90;;;;;;5030837;28;20381;-61
2021/10/30 03:57:44;;;;;;;8.75;7.65;;;12.10;99.90;;;;;;5029360;28;20393;-61
2021/10/30 04:00:09;;;;;;;9.77;8.30;;;12.10;99.90;;;;;;5029320;28;20065;-61
2021/10/30 04:02:35;;;;;;;8.80;7.68;;;12.10;99.90;;;;;;5029716;28;20100;-61
2021/10/30 04:05:01;;;;;;;10.63;8.60;;;12.10;99.90;;;;;;5030987;28;20385;-61
2021/10/30 04:07:26;;;;;;;11.80;9.05;;;12.20;99.90;;;;;;5033050;28;20163;-61
2021/10/30 04:09:52;;;;;;;10.90;7.82;;;12.10;99.90;;;;;;5030854;28;20056;-61
2021/10/30 04:12:17;;;;;;;11.52;8.15;;;12.20;99.90;;;;;;5030438;28;20022;-61
2021/10/30 04:14:43;;;;;;;11.00;8.43;;;12.20;99.90;;;;;;5032094;28;20022;-61
2021/10/30 04:17:08;;;;;;;11.43;8.77;;;12.20;99.90;;;;;;5032451;28;20026;-62
2021/10/30 04:19:34;;;;;;;10.27;8.40;;;12.20;99.90;;;;;;5028711;28;20037;-61
2021/10/30 04:22:00;;;;;;;13.57;8.90;;;12.20;99.90;;;;;;5031182;28;20104;-61
2021/10/30 04:24:25;;;;;;;11.52;9.23;;;12.20;99.90;;;;;;5029461;28;20041;-61
2021/10/30 04:26:51;;;;;;;14.50;9.45;;;12.20;99.90;;;;;;5032679;28;20480;-61
2021/10/30 04:29:16;;;;;;;12.40;9.35;;;12.20;99.90;;;;;;5011629;28;20033;-61
2021/10/30 04:31:43;;;;;;;12.68;9.15;;;12.20;99.90;;;;;;5032099;28;20029;-61
2021/10/30 04:34:17;;;;;;;13.45;10.95;;;12.20;99.90;;;;;;5027807;28;20481;-61
2021/10/30 04:36:45;;;;;;;15.68;10.15;;;12.20;99.90;;;;;;5029348;28;20037;-61
2021/10/30 04:39:11;;;;;;;13.38;10.30;;;12.20;99.90;;;;;;5031128;28;20112;-61
2021/10/30 04:41:38;;;;;;;15.63;10.23;;;12.10;99.90;;;;;;5013516;28;20129;-61
2021/10/30 04:44:05;;;;;;;14.98;10.00;;;12.20;99.90;;;;;;5030006;28;20424;-61
2021/10/30 04:46:30;;;;;;;13.20;10.38;;;12.10;99.90;;;;;;5027818;28;20033;-61
2021/10/30 04:48:56;;;;;;;12.55;9.80;;;12.10;99.90;;;;;;5028633;28;20379;-61
2021/10/30 04:51:21;;;;;;;12.10;9.55;;;12.10;99.90;;;;;;5004862;28;20029;-61
2021/10/30 04:53:48;;;;;;;12.15;9.63;;;12.10;99.90;;;;;;5021192;28;20022;-61
2021/10/30 04:56:14;;;;;;;14.00;9.73;;;12.10;99.90;;;;;;5028754;28;20084;-61
2021/10/30 04:58:43;;;;;;;11.90;9.18;;;12.10;99.90;;;;;;5030939;28;20029;-61
2021/10/30 05:01:13;;;;;;;15.75;9.77;;;12.10;99.90;;;;;;5027030;28;20026;-61
2021/10/30 05:03:40;;;;;;;11.77;9.45;;;12.10;99.90;;;;;;5029781;28;20113;-61
2021/10/30 05:06:06;;;;;;;14.18;9.88;;;12.10;99.90;;;;;;5031932;28;20572;-61
2021/10/30 05:08:32;;;;;;;12.63;9.73;;;12.00;99.90;;;;;;5030007;28;20037;-61
2021/10/30 05:10:57;;;;;;;14.45;9.77;;;12.00;99.90;;;;;;5029583;28;20061;-61
2021/10/30 05:13:23;;;;;;;13.48;9.90;;;12.00;99.90;;;;;;5031194;28;20492;-61
2021/10/30 05:15:48;;;;;;;12.23;9.30;;;12.00;99.90;;;;;;5008378;28;20119;-61
2021/10/30 05:18:13;;;;;;;17.88;9.90;;;12.00;99.90;;;;;;5028474;28;20096;-61
2021/10/30 05:20:39;;;;;;;12.88;9.25;;;11.90;99.90;;;;;;5029146;28;20405;-61
2021/10/30 05:23:05;;;;;;;12.48;9.57;;;11.90;99.90;;;;;;5031617;28;20465;-61
2021/10/30 05:25:30;;;;;;;13.57;8.80;;;11.90;99.90;;;;;;5033721;28;20377;-61
2021/10/30 05:27:56;;;;;;;12.27;9.10;;;11.90;99.90;;;;;;5032463;28;20095;-61
2021/10/30 05:30:21;;;;;;;14.00;9.13;;;11.90;99.90;;;;;;5033515;28;20113;-61
2021/10/30 05:32:47;;;;;;;13.27;9.38;;;11.90;99.90;;;;;;5033464;28;20021;-61
2021/10/30 05:35:12;;;;;;;14.63;9.10;;;11.80;99.90;;;;;;5033329;28;20025;-61
2021/10/30 05:37:38;;;;;;;11.43;8.40;;;11.80;99.90;;;;;;5027454;28;20021;-61
2021/10/30 05:40:07;;;;;;;14.77;10.20;;;11.80;99.90;;;;;;5032039;28;20105;-61
2021/10/30 05:42:35;;;;;;;14.73;9.63;;;11.80;99.90;;;;;;5031591;28;20108;-61
2021/10/30 05:45:03;;;;;;;11.80;8.85;;;11.70;99.90;;;;;;5031151;28;20041;-61
2021/10/30 05:47:28;;;;;;;14.82;9.73;;;11.70;99.90;;;;;;5013106;28;20492;-61
2021/10/30 05:49:54;;;;;;;12.07;9.10;;;11.70;99.90;;;;;;5022116;28;20029;-61
2021/10/30 05:52:19;;;;;;;23.40;10.35;;;11.70;99.90;;;;;;5033093;28;20048;-61
2021/10/30 05:54:45;;;;;;;15.05;8.90;;;11.70;99.90;;;;;;5024440;28;20026;-61
2021/10/30 05:57:14;;;;;;;16.63;9.70;;;11.70;99.90;;;;;;5027532;28;20470;-61
2021/10/30 05:59:39;;;;;;;14.52;10.55;;;11.70;99.90;;;;;;5014302;28;20026;-61
2021/10/30 06:02:06;;;;;;;15.00;10.85;;;11.70;99.90;;;;;;5015502;28;20036;-61
2021/10/30 06:04:31;;;;;;;15.10;10.88;;;11.60;99.90;;;;;;5032718;28;20017;-61
2021/10/30 06:06:57;;;;;;;13.98;10.10;;;11.60;99.90;;;;;;5032776;28;20037;-61
2021/10/30 06:09:23;;;;;;;13.38;10.52;;;11.60;99.90;;;;;;5026290;28;20397;-61
2021/10/30 06:11:48;;;;;;;18.23;10.52;;;11.50;99.90;;;;;;5009013;28;20034;-61
2021/10/30 06:14:14;;;;;;;14.20;10.52;;;11.60;99.90;;;;;;5004676;28;20037;-61
2021/10/30 06:19:35;;;;;;;15.10;11.52;;;11.50;99.90;;;;;;5013354;28;20176;-61
2021/10/30 06:22:00;;;;;;;15.52;11.25;;;11.50;99.90;;;;;;5001018;28;20101;-61
2021/10/30 06:24:26;;;;;;;17.63;11.68;;;11.50;99.90;;;;;;5001190;28;20053;-61
2021/10/30 06:27:02;;;;;;;14.70;11.32;;;11.40;99.90;;;;;;5009896;28;20025;-61
2021/10/30 06:29:31;;;;;;;16.63;12.40;;;11.40;99.90;;;;;;4991160;28;20470;-61
2021/10/30 06:31:57;;;;;;;17.90;12.40;;;11.40;99.90;;;;;;5004981;28;20386;-61
2021/10/30 06:34:23;;;;;;;19.55;12.57;;;11.40;99.90;;;;;;4998740;28;20478;-61
2021/10/30 06:36:48;;;;;;;18.83;13.23;;;11.40;99.90;;;;;;5003006;28;20034;-61
2021/10/30 06:39:14;;;;;;;16.17;12.07;;;11.40;99.90;;;;;;4998337;28;20499;-61
2021/10/30 06:41:40;;;;;;;20.17;13.50;;;11.40;99.90;;;;;;4997501;28;20511;-61
2021/10/30 06:44:06;;;;;;;17.13;13.18;;;11.40;99.90;;;;;;4999387;28;20054;-61
2021/10/30 06:46:31;;;;;;;19.60;14.18;;;11.40;99.90;;;;;;4998531;28;20041;-61
2021/10/30 06:48:57;;;;;;;17.38;12.45;;;11.40;99.90;;;;;;5003254;28;20474;-61
2021/10/30 06:51:24;;;;;;;18.80;13.63;;;11.40;99.90;;;;;;4998380;28;20034;-61
2021/10/30 06:53:51;;;;;;;19.00;13.63;;;11.40;99.90;;;;;;4998532;28;20029;-61
2021/10/30 06:56:17;;;;;;;18.40;14.10;;;11.40;99.90;;;;;;4992572;28;20065;-61
2021/10/30 06:58:42;;;;;;;22.02;14.35;;;11.50;99.90;;;;;;4999860;28;20508;-61
2021/10/30 07:01:08;;;;;;;18.58;12.80;;;11.40;99.90;;;;;;4996037;28;20038;-61
2021/10/30 07:03:49;;;;;;;17.48;13.55;;;11.50;99.90;;;;;;5002040;28;20466;-61
2021/10/30 07:06:15;;;;;;;17.85;12.70;;;11.50;99.90;;;;;;4992066;28;20049;-61
2021/10/30 07:11:46;;;;;;;16.67;12.98;;;11.50;99.90;;;;;;5000586;28;20576;-61
2021/10/30 07:14:13;;;;;;;19.35;13.93;;;11.40;99.90;;;;;;5002055;28;20026;-61
2021/10/30 07:17:21;;;;;;;;;;;;;;;;;;;;;
2021/10/30 07:19:47;;;;;;;18.38;12.95;;;11.50;99.90;;;;;;5000619;28;20036;-61
2021/10/30 07:22:13;;;;;;;18.98;13.20;;;11.50;99.90;;;;;;5000841;28;20109;-61
2021/10/30 07:24:39;;;;;;;18.05;12.95;;;11.50;99.90;;;;;;5001207;28;20126;-61
2021/10/30 07:27:04;;;;;;;19.05;13.82;;;11.50;99.90;;;;;;5001524;28;20084;-61
2021/10/30 07:29:37;;;;;;;15.82;12.05;;;11.50;99.90;;;;;;5011902;28;20034;-61
2021/10/30 07:32:03;;;;;;;17.13;12.15;;;11.60;99.90;;;;;;5011848;28;20018;-61
2021/10/30 07:34:38;;;;;;;18.13;12.00;;;11.50;99.90;;;;;;5011729;28;20029;-61
2021/10/30 07:40:36;;;;;;;17.88;12.00;;;11.60;99.90;;;;;;4952252;28;20518;-61
2021/10/30 07:43:02;;;;;;;17.95;12.20;;;11.50;99.90;;;;;;5004616;28;20490;-61
2021/10/30 07:45:30;;;;;;;14.73;10.77;;;11.60;99.90;;;;;;5010452;28;20387;-61
2021/10/30 07:47:56;;;;;;;14.75;10.23;;;11.60;99.90;;;;;;5010929;28;20034;-61
2021/10/30 07:50:22;;;;;;;14.88;10.50;;;11.70;99.90;;;;;;5007209;28;20027;-61
2021/10/30 07:52:48;;;;;;;16.77;10.23;;;11.70;99.90;;;;;;5011615;28;20040;-61
2021/10/30 07:55:14;;;;;;;14.10;9.63;;;11.70;99.90;;;;;;5011560;28;20478;-61
2021/10/30 07:58:19;;;;;;;13.13;9.45;;;11.80;99.90;;;;;;5009201;28;20022;-61
2021/10/30 08:05:39;;;;;;;12.63;9.45;;;11.80;99.90;;;;;;4929785;29;20042;-61
2021/10/30 08:08:05;;;;;;;12.32;9.30;;;11.80;99.90;;;;;;4897870;29;20131;-61
2021/10/30 08:10:31;;;;;;;12.32;8.50;;;11.80;99.90;;;;;;4946482;28;20125;-61
2021/10/30 08:12:58;;;;;;;13.10;9.10;;;11.80;99.90;;;;;;5004121;28;20033;-61
2021/10/30 08:15:24;;;;;;;15.75;9.98;;;11.90;99.90;;;;;;5035140;28;20030;-61
2021/10/30 08:24:59;;;;;;;12.27;9.05;;;11.90;99.90;;;;;;4947712;28;20422;-61
2021/10/30 08:27:25;;;;;;;13.38;9.10;;;11.90;99.90;;;;;;4972238;28;20031;-61
2021/10/30 08:29:50;;;;;;;11.90;8.40;;;11.90;99.90;;;;;;5004645;28;20049;-61
2021/10/30 08:32:16;;;;;;;12.35;9.73;;;12.00;99.90;;;;;;5030195;28;20242;-61
2021/10/30 08:35:00;;;;;;;11.43;7.97;;;12.00;99.90;;;;;;5023972;28;20061;-61
2021/10/30 08:41:36;;;;;;;12.05;8.40;;;12.10;99.90;;;;;;5009751;28;20045;-61
2021/10/30 08:44:02;;;;;;;10.15;8.25;;;12.10;99.90;;;;;;5026223;28;20052;-61
2021/10/30 08:46:29;;;;;;;9.95;7.70;;;12.10;99.90;;;;;;5024961;28;20075;-61
2021/10/30 08:48:55;;;;;;;10.45;7.95;;;12.10;99.90;;;;;;5022622;28;20034;-61
2021/10/30 08:51:21;;;;;;;10.55;7.25;;;12.10;99.90;;;;;;5031074;28;20061;-61
2021/10/30 08:53:47;;;;;;;11.02;7.20;;;12.10;99.90;;;;;;5034090;28;20034;-61
2021/10/30 08:56:15;;;;;;;12.18;7.97;;;12.20;99.90;;;;;;5034128;28;20500;-61
2021/10/30 08:58:50;;;;;;;10.70;7.60;;;12.20;99.90;;;;;;5029065;28;20034;-61
2021/10/30 09:04:38;;;;;;;7.38;6.28;;;12.30;99.90;;;;;;4953008;28;20114;-61
2021/10/30 09:07:08;;;;;;;11.27;6.82;;;12.30;99.90;;;;;;5014884;28;20117;-61
2021/10/30 09:09:37;;;;;;;10.18;7.07;;;12.30;99.90;;;;;;5027738;28;20025;-61
2021/10/30 09:12:03;;;;;;;9.80;6.95;;;12.30;99.90;;;;;;5033400;28;20044;-61
2021/10/30 09:14:31;;;;;;;7.95;6.70;;;12.30;99.90;;;;;;5028043;28;20113;-61
2021/10/30 09:17:12;;;;;;;8.30;7.05;;;12.40;99.90;;;;;;5023533;28;20028;-61
2021/10/30 09:19:46;;;;;;;10.88;6.88;;;12.40;99.90;;;;;;5021192;28;20036;-61
2021/10/30 09:22:13;;;;;;;9.20;6.47;;;12.40;99.90;;;;;;5025678;28;20449;-61
2021/10/30 09:25:06;;;;;;;7.95;6.32;;;12.40;99.90;;;;;;5026149;28;20543;-61
2021/10/30 09:34:42;;;;;;;8.95;6.60;;;12.60;99.90;;;;;;4864774;29;20040;-61
2021/10/30 09:40:41;;;;;;;9.02;6.25;;;12.60;99.90;;;;;;4882810;29;20179;-61
2021/10/30 09:43:13;;;;;;;8.63;5.95;;;12.60;99.90;;;;;;4915679;29;20229;-61
2021/10/30 09:45:41;;;;;;;7.20;5.95;;;12.70;99.90;;;;;;5007203;28;20061;-61
2021/10/30 09:48:09;;;;;;;8.40;6.35;;;12.70;99.90;;;;;;5024465;28;20036;-61
2021/10/30 09:50:35;;;;;;;9.40;5.70;;;12.80;99.90;;;;;;5012757;28;20025;-61
2021/10/30 09:53:23;;;;;;;8.43;5.97;;;12.80;99.90;;;;;;5022286;28;20040;-61
2021/10/30 10:20:52;;;;;;;7.95;5.82;;;12.90;99.90;;;;;;4703650;30;20099;-61
2021/10/30 10:23:19;;;;;;;;;;;12.90;99.90;;;;;;4707964;30;20059;-61
2021/10/30 10:25:50;;;;;;;9.80;6.25;;;12.90;99.90;;;;;;4849200;28;19967;-61
2021/10/30 10:28:33;;;;;;;7.93;6.05;;;12.80;99.90;;;;;;5016159;28;20068;-61
2021/10/30 10:31:20;;;;;;;;;;;;;;;;;;;;;
2021/10/30 10:34:06;;;;;;;7.25;5.43;;;12.90;99.90;;;;;;5001419;28;20507;-61
2021/10/30 10:39:34;;;;;;;7.00;5.40;;;12.90;99.90;;;;;;5027245;28;20038;-61
2021/10/30 10:42:01;;;;;;;7.82;4.95;;;12.90;99.90;;;;;;5032346;28;20084;-61
2021/10/30 10:44:47;;;;;;;7.95;5.03;;;13.00;99.90;;;;;;5032345;28;20494;-61
2021/10/30 10:47:34;;;;;;;8.07;5.03;;;13.00;99.90;;;;;;5014153;28;20068;-61
2021/10/30 10:50:10;;;;;;;6.13;4.75;;;13.00;99.90;;;;;;5029962;28;20235;-61
2021/10/30 10:52:41;;;;;;;8.20;4.78;;;13.00;99.90;;;;;;5032427;28;20060;-61
2021/10/30 10:55:07;;;;;;;6.28;5.18;;;13.00;99.90;;;;;;5032024;28;20099;-61
2021/10/30 10:57:33;;;;;;;6.45;4.95;;;13.00;99.90;;;;;;5001514;28;20073;-61
2021/10/30 11:00:05;;;;;;;5.72;5.15;;;13.00;99.90;;;;;;5006617;28;20064;-61
2021/10/30 11:02:39;;;;;;;7.78;4.97;;;13.10;99.90;;;;;;5001845;28;21415;-61
2021/10/30 11:05:08;;;;;;;4.88;4.38;;;13.10;99.90;;;;;;5002759;28;20033;-61
2021/10/30 11:07:39;;;;;;;6.97;4.65;;;13.10;99.90;;;;;;5024029;28;20037;-61
2021/10/30 11:10:08;;;;;;;6.60;4.25;;;13.10;99.90;;;;;;5011028;28;20021;-61
2021/10/30 11:12:34;;;;;;;7.60;5.22;;;13.10;99.90;;;;;;5020733;28;20025;-61
2021/10/30 11:18:16;;;;;;;7.63;4.40;;;13.10;99.90;;;;;;5019394;28;20041;-61
2021/10/30 11:24:44;;;;;;;;;;;;;;;;;;;;;
2021/10/30 11:27:11;;;;;;;5.95;4.45;;;13.20;99.90;;;;;;5026155;28;20022;-61
2021/10/30 11:30:16;;;;;;;6.00;4.47;;;13.20;99.90;;;;;;5021388;28;20034;-61
2021/10/30 11:32:41;;;;;;;6.07;3.78;;;13.20;99.90;;;;;;5015432;28;20552;-61
2021/10/30 11:35:11;;;;;;;6.40;4.53;;;13.20;99.90;;;;;;4994639;28;20025;-62
2021/10/30 11:37:41;;;;;;;5.25;3.80;;;13.30;99.90;;;;;;5031638;28;20029;-61
2021/10/30 11:40:07;;;;;;;10.20;4.63;;;13.30;99.90;;;;;;5031572;28;20025;-61
2021/10/30 11:42:41;;;;;;;6.18;4.85;;;13.30;99.90;;;;;;5031315;28;20033;-61
2021/10/30 11:45:38;;;;;;;4.75;4.03;;;13.40;99.90;;;;;;5031226;28;20540;-61
2021/10/30 11:48:03;;;;;;;5.55;3.50;;;13.40;99.90;;;;;;5008263;28;20637;-61
2021/10/30 11:50:29;;;;;;;4.88;3.90;;;13.50;99.90;;;;;;5019007;28;20105;-61
2021/10/30 11:53:02;;;;;;;6.95;4.30;;;13.50;99.90;;;;;;5034737;28;20025;-61
2021/10/30 11:55:28;;;;;;;5.80;4.05;;;13.50;99.90;;;;;;5013236;28;20022;-61
2021/10/30 11:57:54;;;;;;;5.13;3.92;;;13.60;99.90;;;;;;5023779;28;20025;-61
2021/10/30 12:00:23;;;;;;;4.00;3.22;;;13.60;99.90;;;;;;5024836;28;20080;-61
2021/10/30 12:03:04;;;;;;;5.13;3.90;;;13.60;99.90;;;;;;5031942;28;20064;-61
2021/10/30 12:05:33;;;;;;;5.60;3.92;;;13.70;99.90;;;;;;5017219;28;20370;-61
2021/10/30 12:08:07;;;;;;;4.97;3.80;;;13.70;99.90;;;;;;5033801;28;20021;-61
2021/10/30 12:10:33;;;;;;;4.40;3.60;;;13.80;99.90;;;;;;5035064;28;20041;-61
2021/10/30 12:13:10;;;;;;;5.70;4.18;;;13.90;99.90;;;;;;5034372;28;20036;-61
2021/10/30 12:15:38;;;;;;;6.82;3.90;;;14.10;99.90;;;;;;5024559;28;20028;-61
2021/10/30 12:18:04;;;;;;;5.25;3.65;;;14.30;99.90;;;;;;5034740;28;20022;-61
2021/10/30 12:20:35;;;;;;;5.57;3.42;;;14.30;99.90;;;;;;5034816;28;20028;-61
2021/10/30 12:23:04;;;;;;;7.07;3.47;;;14.40;99.90;;;;;;5034096;28;20373;-61
2021/10/30 12:25:30;;;;;;;4.80;3.63;;;14.40;99.90;;;;;;5034621;28;20052;-61
2021/10/30 12:28:20;;;;;;;;;;;;;;;;;;;;;
2021/10/30 12:30:46;;;;;;;5.07;3.25;;;14.40;99.90;;;;;;5034536;28;20036;-61
2021/10/30 12:33:13;;;;;;;4.63;3.70;;;14.40;99.90;;;;;;5015830;28;20104;-61
2021/10/30 12:35:44;;;;;;;7.03;3.47;;;14.40;99.90;;;;;;5029094;28;20416;-61
2021/10/30 12:38:12;;;;;;;4.25;2.70;;;14.40;99.90;;;;;;5034746;28;20032;-61
2021/10/30 12:40:38;;;;;;;4.90;3.85;;;14.60;99.90;;;;;;5034524;28;20037;-61
2021/10/30 12:43:09;;;;;;;3.25;2.33;;;14.80;99.90;;;;;;5031546;28;20547;-61
2021/10/30 12:45:46;;;;;;;3.78;2.67;;;15.00;99.90;;;;;;5024489;28;20061;-61
2021/10/30 12:48:19;;;;;;;3.75;2.70;;;15.30;99.90;;;;;;5030179;28;20117;-62
2021/10/30 12:51:02;;;;;;;2.95;2.25;;;15.40;99.90;;;;;;5012219;28;20498;-61
2021/10/30 12:53:34;;;;;;;3.47;2.53;;;15.40;99.90;;;;;;5023876;28;20041;-61
2021/10/30 12:56:07;;;;;;;4.28;2.55;;;15.50;99.80;;;;;;5023534;28;20021;-62
2021/10/30 12:58:35;;;;;;;2.45;1.90;;;15.60;99.30;;;;;;5029262;28;20104;-61
2021/10/30 13:01:24;;;;;;;3.90;2.40;;;15.80;99.20;;;;;;5026306;28;20057;-62
2021/10/30 13:04:05;;;;;;;2.78;2.00;;;16.00;98.40;;;;;;5020820;28;20493;-61
2021/10/30 13:06:33;;;;;;;4.18;1.80;;;16.70;98.00;;;;;;5022364;28;20072;-61
2021/10/30 13:09:08;;;;;;;4.32;1.88;;;17.70;95.50;;;;;;5024673;28;20037;-62
2021/10/30 13:11:33;;;;;;;4.60;1.95;;;17.90;93.70;;;;;;5024768;28;20544;-62
2021/10/30 13:13:59;;;;;;;1.75;1.30;;;17.70;93.60;;;;;;5024065;28;20052;-62
2021/10/30 13:16:25;;;;;;;3.15;1.92;;;17.30;94.00;;;;;;5028257;28;20099;-62
2021/10/30 13:18:51;;;;;;;2.53;1.70;;;16.70;94.80;;;;;;5033459;28;20477;-62
2021/10/30 13:21:24;;;;;;;6.38;1.77;;;16.30;95.50;;;;;;5032979;28;20129;-61
2021/10/30 13:23:52;;;;;;;4.00;1.80;;;16.00;96.10;;;;;;5032009;28;20029;-62
2021/10/30 13:26:19;;;;;;;2.50;1.90;;;15.80;96.90;;;;;;5031316;28;20493;-62
2021/10/30 13:28:45;;;;;;;3.45;1.92;;;15.60;97.20;;;;;;5033681;28;20029;-62
2021/10/30 13:31:11;;;;;;;3.30;2.03;;;15.50;97.20;;;;;;5032662;28;20052;-62
2021/10/30 13:33:37;;;;;;;2.92;1.88;;;15.40;97.70;;;;;;5026538;28;20021;-62
2021/10/30 13:36:04;;;;;;;2.72;1.77;;;15.40;97.70;;;;;;5022355;28;20582;-61
2021/10/30 13:38:29;;;;;;;4.80;2.03;;;15.40;97.90;;;;;;5005714;28;20033;-62
2021/10/30 13:40:55;;;;;;;2.72;1.80;;;15.30;97.80;;;;;;5022411;28;20033;-61
2021/10/30 13:43:21;;;;;;;3.47;1.70;;;15.30;97.60;;;;;;5010088;28;20032;-62
2021/10/30 13:46:55;;;;;;;;;;;;;;;;;;;;;
2021/10/30 13:49:21;;;;;;;3.10;1.23;;;15.40;97.80;;;;;;4999001;28;20041;-62
2021/10/30 13:51:46;;;;;;;1.98;1.27;;;15.40;97.40;;;;;;5025805;28;20453;-62
2021/10/30 13:54:12;;;;;;;2.65;1.30;;;15.40;97.40;;;;;;5021975;28;20028;-61
2021/10/30 13:56:38;;;;;;;2.63;1.60;;;15.50;97.30;;;;;;5030615;28;20417;-62
2021/10/30 13:59:04;;;;;;;3.47;1.20;;;15.50;97.10;;;;;;5025936;28;20477;-62
2021/10/30 14:01:30;;;;;;;2.20;1.15;;;15.60;96.80;;;;;;5030821;28;20021;-62
2021/10/30 14:03:56;;;;;;;2.35;0.90;;;15.60;96.80;;;;;;5032718;28;20537;-61
2021/10/30 14:06:21;;;;;;;1.95;1.10;;;15.60;96.80;;;;;;5031373;28;20068;-61